createdAt,value
2022-07-28T00:02:20.102Z,1.85
2022-07-28T00:04:50.401Z,4.43
2022-07-28T00:07:20.608Z,3.63
2022-07-28T00:09:50.818Z,3.90
2022-07-28T00:12:21.507Z,4.25
2022-07-28T00:14:51.872Z,2.70
2022-07-28T00:17:25.178Z,3.03
2022-07-28T00:19:55.479Z,5.78
2022-07-28T00:22:25.929Z,4.07
2022-07-28T00:24:56.187Z,4.03
2022-07-28T00:27:26.569Z,4.72
2022-07-28T00:29:56.785Z,3.40
2022-07-28T00:32:29.704Z,3.25
2022-07-28T00:35:00.660Z,2.60
2022-07-28T00:37:32.661Z,3.75
2022-07-28T00:40:02.875Z,3.67
2022-07-28T00:42:33.601Z,4.55
2022-07-28T00:45:03.763Z,3.42
2022-07-28T00:47:36.673Z,4.38
2022-07-28T00:50:08.593Z,2.63
2022-07-28T00:52:39.251Z,5.53
2022-07-28T00:55:10.724Z,3.15
2022-07-28T00:57:40.993Z,5.50
2022-07-28T01:00:13.892Z,4.03
2022-07-28T01:02:48.197Z,4.28
2022-07-28T01:05:44.108Z,5.10
2022-07-28T01:08:19.255Z,5.45
2022-07-28T01:11:02.483Z,7.88
2022-07-28T01:13:42.106Z,3.45
2022-07-28T01:16:12.481Z,5.50
2022-07-28T01:18:57.298Z,4.07
2022-07-28T01:21:33.628Z,4.47
2022-07-28T01:24:25.105Z,4.93
2022-07-28T01:27:01.969Z,2.92
2022-07-28T01:29:51.953Z,3.92
2022-07-28T01:32:28.594Z,5.05
2022-07-28T01:35:05.186Z,3.80
2022-07-28T01:37:43.462Z,4.75
2022-07-28T01:40:17.842Z,4.82
2022-07-28T01:42:51.323Z,3.40
2022-07-28T01:45:23.926Z,6.30
2022-07-28T01:48:00.459Z,4.03
2022-07-28T01:50:33.186Z,3.88
2022-07-28T01:53:04.967Z,3.13
2022-07-28T01:55:37.239Z,5.10
2022-07-28T01:58:08.030Z,4.05
2022-07-28T02:00:39.695Z,4.38
2022-07-28T02:03:14.034Z,5.65
2022-07-28T02:05:46.789Z,4.75
2022-07-28T02:08:19.191Z,4.93
2022-07-28T02:11:11.292Z,4.82
2022-07-28T02:13:42.520Z,3.15
2022-07-28T02:16:15.195Z,4.40
2022-07-28T02:18:49.640Z,4.43
2022-07-28T02:21:21.454Z,5.05
2022-07-28T02:23:53.879Z,4.72
2022-07-28T02:26:32.133Z,3.55
2022-07-28T02:29:06.861Z,4.70
2022-07-28T02:31:46.971Z,3.15
2022-07-28T02:34:27.942Z,4.85
2022-07-28T02:37:02.118Z,3.75
2022-07-28T02:39:41.882Z,3.30
2022-07-28T02:42:26.262Z,3.78
2022-07-28T02:45:02.477Z,3.40
2022-07-28T02:47:42.465Z,4.20
2022-07-28T02:50:18.444Z,2.90
2022-07-28T02:52:49.937Z,5.15
2022-07-28T02:55:21.336Z,6.45
2022-07-28T02:57:56.626Z,4.57
2022-07-28T03:00:28.325Z,3.70
2022-07-28T03:02:59.812Z,3.67
2022-07-28T03:05:33.505Z,4.78
2022-07-28T03:08:03.919Z,3.15
2022-07-28T03:10:34.958Z,6.35
2022-07-28T03:13:07.303Z,6.10
2022-07-28T03:15:40.339Z,3.05
2022-07-28T03:18:11.035Z,3.38
2022-07-28T03:20:43.916Z,4.57
2022-07-28T03:23:14.706Z,3.35
2022-07-28T03:25:51.077Z,4.05
2022-07-28T03:28:24.582Z,6.63
2022-07-28T03:31:00.463Z,3.92
2022-07-28T03:33:31.317Z,3.15
2022-07-28T03:36:11.809Z,4.57
2022-07-28T03:38:48.264Z,3.72
2022-07-28T03:41:19.759Z,7.15
2022-07-28T03:43:50.956Z,4.97
2022-07-28T03:46:21.663Z,4.57
2022-07-28T03:48:52.150Z,3.97
2022-07-28T03:51:25.682Z,4.43
2022-07-28T03:53:56.077Z,4.43
2022-07-28T03:56:26.180Z,5.07
2022-07-28T03:58:56.353Z,5.03
2022-07-28T04:01:26.699Z,4.13
2022-07-28T04:03:56.979Z,5.22
2022-07-28T04:06:29.777Z,6.55
2022-07-28T04:08:59.972Z,5.50
2022-07-28T04:11:30.214Z,5.00
2022-07-28T04:14:00.511Z,5.35
2022-07-28T04:16:30.850Z,5.18
2022-07-28T04:19:01.080Z,6.25
2022-07-28T04:21:33.905Z,7.15
2022-07-28T04:24:04.088Z,3.13
2022-07-28T04:26:34.328Z,5.95
2022-07-28T04:29:04.522Z,4.63
2022-07-28T04:31:34.991Z,4.93
2022-07-28T04:34:05.132Z,4.22
2022-07-28T04:36:42.195Z,5.90
2022-07-28T04:39:14.015Z,5.88
2022-07-28T04:41:44.163Z,5.50
2022-07-28T04:44:15.459Z,5.33
2022-07-28T04:46:45.903Z,5.10
2022-07-28T04:49:16.183Z,5.03
2022-07-28T04:51:50.681Z,3.35
2022-07-28T04:54:26.357Z,3.65
2022-07-28T04:56:56.959Z,6.65
2022-07-28T04:59:27.335Z,4.68
2022-07-28T05:01:59.958Z,5.13
2022-07-28T05:04:30.232Z,4.55
2022-07-28T05:07:11.863Z,5.22
2022-07-28T05:09:43.065Z,5.38
2022-07-28T05:12:13.584Z,10.15
2022-07-28T05:14:43.896Z,4.57
2022-07-28T05:17:14.140Z,5.95
2022-07-28T05:19:44.389Z,4.65
2022-07-28T05:22:17.557Z,9.43
2022-07-28T05:24:47.737Z,6.13
2022-07-28T05:27:17.932Z,8.48
2022-07-28T05:29:48.572Z,6.45
2022-07-28T05:32:18.978Z,11.55
2022-07-28T05:34:49.360Z,4.88
2022-07-28T05:37:22.675Z,6.20
2022-07-28T05:39:53.112Z,3.88
2022-07-28T05:42:23.472Z,5.57
2022-07-28T05:44:53.693Z,5.10
2022-07-28T05:47:24.326Z,7.35
2022-07-28T05:49:54.505Z,4.97
2022-07-28T05:52:28.021Z,8.85
2022-07-28T05:54:59.182Z,7.00
2022-07-28T05:57:32.439Z,7.55
2022-07-28T06:00:06.403Z,5.43
2022-07-28T06:02:46.387Z,6.60
2022-07-28T06:05:17.571Z,5.30
2022-07-28T06:08:00.171Z,9.15
2022-07-28T06:10:58.577Z,4.25
2022-07-28T06:13:32.750Z,6.25
2022-07-28T06:16:12.970Z,4.35
2022-07-28T06:18:49.350Z,7.25
2022-07-28T06:21:22.589Z,5.22
2022-07-28T06:23:58.312Z,5.57
2022-07-28T06:26:32.916Z,5.95
2022-07-28T06:29:07.007Z,4.57
2022-07-28T06:31:37.644Z,6.55
2022-07-28T06:36:38.032Z,5.47
2022-07-28T06:39:11.083Z,6.72
2022-07-28T06:41:43.480Z,7.70
2022-07-28T06:44:14.173Z,6.80
2022-07-28T06:46:44.782Z,5.57
2022-07-28T06:49:15.249Z,5.10
2022-07-28T06:51:45.842Z,6.05
2022-07-28T06:54:18.972Z,6.60
2022-07-28T06:56:52.110Z,6.00
2022-07-28T06:59:22.945Z,7.45
2022-07-28T07:01:53.270Z,10.32
2022-07-28T07:04:23.570Z,5.68
2022-07-28T07:06:53.777Z,4.72
2022-07-28T07:09:26.665Z,4.57
2022-07-28T07:11:56.972Z,6.38
2022-07-28T07:14:30.406Z,5.80
2022-07-28T07:17:00.685Z,9.95
2022-07-28T07:19:30.887Z,5.07
2022-07-28T07:22:01.089Z,4.63
2022-07-28T07:24:34.320Z,8.52
2022-07-28T07:27:04.558Z,5.07
2022-07-28T07:29:34.823Z,5.47
2022-07-28T07:32:10.173Z,6.03
2022-07-28T07:34:42.147Z,5.95
2022-07-28T07:37:14.729Z,3.22
2022-07-28T07:39:47.466Z,8.27
2022-07-28T07:42:18.021Z,5.60
2022-07-28T07:47:21.915Z,5.25
2022-07-28T07:49:52.537Z,4.40
2022-07-28T07:52:22.767Z,4.90
2022-07-28T07:54:55.656Z,6.95
2022-07-28T07:57:25.856Z,4.68
2022-07-28T07:59:56.051Z,5.75
2022-07-28T08:02:26.246Z,5.32
2022-07-28T08:04:56.560Z,3.70
2022-07-28T08:07:27.076Z,3.70
2022-07-28T08:09:59.843Z,3.75
2022-07-28T08:12:30.241Z,12.35
2022-07-28T08:17:30.483Z,6.60
2022-07-28T08:22:30.636Z,5.80
2022-07-28T08:27:34.067Z,5.38
2022-07-28T08:32:34.986Z,4.47
2022-07-28T08:35:31.616Z,7.85
2022-07-28T08:40:28.235Z,3.45
2022-07-28T08:43:04.728Z,8.52
2022-07-28T08:45:39.385Z,6.38
2022-07-28T08:48:13.667Z,4.18
2022-07-28T08:50:45.346Z,4.93
2022-07-28T08:53:17.908Z,4.40
2022-07-28T08:55:52.011Z,5.50
2022-07-28T08:58:22.944Z,4.63
2022-07-28T09:00:53.327Z,4.95
2022-07-28T09:03:23.936Z,4.80
2022-07-28T09:05:54.456Z,3.05
2022-07-28T09:08:24.878Z,4.75
2022-07-28T09:10:57.920Z,5.30
2022-07-28T09:13:28.195Z,3.42
2022-07-28T09:15:59.041Z,2.70
2022-07-28T09:18:29.509Z,4.15
2022-07-28T09:20:59.782Z,3.10
2022-07-28T09:23:46.272Z,3.42
2022-07-28T09:26:20.808Z,3.53
2022-07-28T09:28:54.135Z,4.05
2022-07-28T09:31:26.282Z,6.78
2022-07-28T09:34:03.164Z,4.03
2022-07-28T09:36:40.440Z,4.85
2022-07-28T09:39:11.207Z,3.83
2022-07-28T09:41:58.061Z,6.22
2022-07-28T09:44:29.794Z,4.72
2022-07-28T09:47:00.406Z,3.63
2022-07-28T09:49:45.240Z,11.57
2022-07-28T09:52:16.010Z,5.30
2022-07-28T09:55:03.404Z,3.63
2022-07-28T09:57:38.029Z,2.15
2022-07-28T10:00:14.233Z,5.57
2022-07-28T10:02:53.233Z,6.10
2022-07-28T10:05:23.656Z,5.83
2022-07-28T10:07:53.963Z,5.85
2022-07-28T10:10:24.739Z,4.47
2022-07-28T10:13:08.640Z,3.00
2022-07-28T10:15:51.337Z,5.90
2022-07-28T10:18:21.610Z,3.75
2022-07-28T10:20:52.045Z,4.60
2022-07-28T10:23:23.480Z,6.20
2022-07-28T10:25:55.389Z,5.50
2022-07-28T10:28:28.824Z,3.50
2022-07-28T10:31:02.432Z,5.63
2022-07-28T10:33:35.511Z,2.78
2022-07-28T10:36:06.493Z,3.83
2022-07-28T10:38:38.855Z,5.97
2022-07-28T10:41:11.839Z,6.07
2022-07-28T10:43:45.652Z,4.30
2022-07-28T10:46:17.074Z,4.07
2022-07-28T10:48:47.964Z,4.28
2022-07-28T10:51:18.474Z,6.38
2022-07-28T10:53:56.146Z,6.53
2022-07-28T10:56:41.896Z,7.97
2022-07-28T10:59:32.183Z,5.03
2022-07-28T11:05:01.993Z,4.85
2022-07-28T11:07:42.413Z,7.47
2022-07-28T11:10:20.564Z,3.22
2022-07-28T11:12:56.189Z,4.63
2022-07-28T11:15:35.783Z,4.90
2022-07-28T11:18:09.606Z,4.80
2022-07-28T11:21:16.613Z,3.38
2022-07-28T11:23:58.376Z,4.85
2022-07-28T11:26:39.829Z,4.90
2022-07-28T11:29:27.610Z,5.15
2022-07-28T11:32:08.487Z,5.57
2022-07-28T11:35:11.335Z,3.30
2022-07-28T11:38:15.774Z,7.03
2022-07-28T11:40:48.081Z,12.85
2022-07-28T11:43:37.000Z,6.10
2022-07-28T11:46:41.140Z,11.77
2022-07-28T11:49:31.865Z,6.22
2022-07-28T11:52:20.887Z,5.40
2022-07-28T11:54:55.155Z,5.78
2022-07-28T11:57:26.937Z,6.05
2022-07-28T12:00:01.092Z,6.78
2022-07-28T12:02:34.690Z,4.50
2022-07-28T12:05:15.735Z,5.82
2022-07-28T12:07:49.902Z,7.03
2022-07-28T12:10:55.258Z,5.80
2022-07-28T12:13:30.935Z,4.72
2022-07-28T12:16:01.187Z,6.57
2022-07-28T12:18:32.033Z,5.07
2022-07-28T12:21:05.472Z,5.40
2022-07-28T12:23:38.929Z,6.07
2022-07-28T12:26:15.671Z,8.70
2022-07-28T12:28:56.041Z,6.78
2022-07-28T12:31:30.096Z,6.65
2022-07-28T12:34:00.397Z,5.78
2022-07-28T12:36:33.419Z,8.18
2022-07-28T12:39:09.480Z,6.57
2022-07-28T12:41:42.928Z,7.15
2022-07-28T12:44:14.301Z,8.20
2022-07-28T12:46:49.381Z,8.50
2022-07-28T12:49:25.640Z,8.07
2022-07-28T12:52:00.830Z,8.05
2022-07-28T12:54:39.473Z,7.70
2022-07-28T12:57:09.842Z,14.80
2022-07-28T12:59:42.473Z,11.30
2022-07-28T13:02:13.071Z,9.25
2022-07-28T13:04:47.099Z,10.00
2022-07-28T13:07:30.421Z,8.65
2022-07-28T13:10:06.834Z,9.27
2022-07-28T13:12:43.715Z,8.73
2022-07-28T13:15:19.275Z,7.35
2022-07-28T13:17:57.189Z,10.02
2022-07-28T13:20:28.166Z,9.57
2022-07-28T13:23:01.207Z,7.88
2022-07-28T13:25:31.688Z,12.80
2022-07-28T13:28:02.743Z,11.45
2022-07-28T13:30:34.909Z,10.60
2022-07-28T13:33:05.143Z,12.10
2022-07-28T13:35:35.337Z,10.75
2022-07-28T13:38:08.252Z,13.05
2022-07-28T13:40:38.985Z,9.80
2022-07-28T13:43:11.182Z,13.25
2022-07-28T13:45:41.716Z,10.68
2022-07-28T13:48:12.887Z,11.77
2022-07-28T13:50:43.104Z,15.13
2022-07-28T13:53:30.862Z,15.10
2022-07-28T13:56:01.332Z,12.18
2022-07-28T13:58:33.860Z,16.58
2022-07-28T14:01:04.885Z,15.00
2022-07-28T14:03:55.975Z,14.23
2022-07-28T14:06:26.317Z,14.88
2022-07-28T14:09:04.290Z,13.25
2022-07-28T14:11:36.458Z,12.63
2022-07-28T14:14:07.036Z,14.80
2022-07-28T14:16:37.350Z,15.77
2022-07-28T14:19:07.656Z,17.80
2022-07-28T14:21:37.917Z,19.38
2022-07-28T14:24:12.290Z,21.55
2022-07-28T14:26:42.758Z,18.88
2022-07-28T14:29:13.004Z,17.35
2022-07-28T14:31:43.572Z,17.05
2022-07-28T14:34:16.858Z,20.40
2022-07-28T14:36:47.447Z,17.58
2022-07-28T14:39:25.241Z,16.50
2022-07-28T14:41:55.481Z,19.10
2022-07-28T14:44:26.800Z,18.15
2022-07-28T14:46:57.344Z,18.35
2022-07-28T14:49:28.180Z,21.48
2022-07-28T14:51:59.555Z,21.00
2022-07-28T14:54:32.865Z,22.25
2022-07-28T14:57:03.253Z,21.80
2022-07-28T14:59:33.686Z,18.67
2022-07-28T15:02:09.265Z,21.85
2022-07-28T15:04:39.623Z,19.77
2022-07-28T15:07:12.056Z,25.27
2022-07-28T15:09:50.127Z,20.75
2022-07-28T15:12:24.341Z,22.48
2022-07-28T15:14:54.513Z,22.95
2022-07-28T15:17:24.768Z,19.17
2022-07-28T15:19:56.318Z,19.25
2022-07-28T15:22:26.769Z,18.35
2022-07-28T15:24:59.968Z,21.13
2022-07-28T15:27:33.748Z,22.92
2022-07-28T15:30:04.427Z,20.85
2022-07-28T15:32:54.210Z,19.60
2022-07-28T15:35:27.830Z,17.23
2022-07-28T15:37:59.207Z,17.13
2022-07-28T15:40:32.377Z,17.85
2022-07-28T15:43:02.810Z,18.17
2022-07-28T15:45:33.408Z,17.85
2022-07-28T15:48:04.885Z,18.55
2022-07-28T15:50:35.286Z,17.23
2022-07-28T15:53:05.666Z,17.58
2022-07-28T15:55:39.018Z,18.63
2022-07-28T15:58:09.596Z,15.52
2022-07-28T16:00:40.460Z,15.35
2022-07-28T16:03:11.669Z,18.85
2022-07-28T16:05:44.166Z,14.95
2022-07-28T16:08:14.425Z,13.93
2022-07-28T16:10:47.674Z,13.52
2022-07-28T16:13:22.529Z,15.50
2022-07-28T16:15:58.860Z,15.90
2022-07-28T16:18:29.134Z,14.35
2022-07-28T16:20:59.357Z,14.95
2022-07-28T16:23:29.819Z,14.32
2022-07-28T16:26:03.029Z,14.38
2022-07-28T16:28:34.342Z,16.92
2022-07-28T16:31:04.781Z,17.33
2022-07-28T16:33:35.635Z,14.52
2022-07-28T16:36:07.572Z,12.40
2022-07-28T16:38:38.004Z,13.60
2022-07-28T16:41:11.556Z,19.92
2022-07-28T16:43:46.769Z,12.93
2022-07-28T16:46:17.207Z,10.02
2022-07-28T16:48:47.539Z,17.50
2022-07-28T16:51:17.718Z,39.00
2022-07-28T16:53:51.997Z,14.85
2022-07-28T16:56:24.898Z,10.38
2022-07-28T16:58:55.088Z,9.32
2022-07-28T17:01:25.288Z,7.47
2022-07-28T17:03:55.578Z,9.55
2022-07-28T17:06:25.848Z,10.25
2022-07-28T17:08:56.058Z,7.43
2022-07-28T17:11:28.917Z,8.13
2022-07-28T17:13:59.062Z,8.60
2022-07-28T17:18:59.665Z,7.90
2022-07-28T17:21:29.860Z,7.00
2022-07-28T17:24:00.102Z,7.30
2022-07-28T17:29:25.363Z,9.27
2022-07-28T17:31:55.487Z,5.82
2022-07-28T17:36:55.720Z,6.45
2022-07-28T17:39:25.962Z,7.90
2022-07-28T17:44:28.772Z,5.63
2022-07-28T17:47:03.808Z,6.88
2022-07-28T17:49:34.086Z,6.45
2022-07-28T17:52:05.074Z,8.55
2022-07-28T17:54:56.085Z,9.20
2022-07-28T17:57:30.592Z,6.78
2022-07-28T18:00:10.455Z,6.30
2022-07-28T18:02:42.325Z,9.68
2022-07-28T18:05:13.687Z,8.18
2022-07-28T18:07:50.241Z,7.88
2022-07-28T18:10:25.087Z,6.45
2022-07-28T18:13:00.216Z,9.07
2022-07-28T18:15:32.485Z,6.80
2022-07-28T18:18:02.714Z,10.48
2022-07-28T18:20:36.128Z,8.13
2022-07-28T18:23:07.013Z,9.55
2022-07-28T18:25:43.473Z,15.43
2022-07-28T18:28:19.452Z,5.60
2022-07-28T18:30:50.581Z,5.20
2022-07-28T18:33:23.354Z,7.20
2022-07-28T18:35:53.644Z,6.05
2022-07-28T18:38:23.866Z,8.77
2022-07-28T18:40:54.099Z,6.03
2022-07-28T18:45:56.996Z,9.05
2022-07-28T18:50:58.678Z,4.55
2022-07-28T18:53:29.476Z,5.75
2022-07-28T18:56:01.825Z,6.55
2022-07-28T18:58:34.666Z,5.75
2022-07-28T19:01:04.903Z,6.53
2022-07-28T19:03:40.758Z,6.93
2022-07-28T19:06:11.200Z,5.03
2022-07-28T19:11:11.480Z,4.83
2022-07-28T19:13:44.457Z,5.72
2022-07-28T19:16:14.785Z,10.30
2022-07-28T19:21:17.024Z,7.35
2022-07-28T19:26:18.823Z,5.72
2022-07-28T19:28:51.652Z,6.03
2022-07-28T19:31:21.970Z,7.72
2022-07-28T19:33:52.332Z,7.78
2022-07-28T19:36:22.630Z,5.82
2022-07-28T19:38:52.902Z,6.18
2022-07-28T19:41:23.320Z,8.05
2022-07-28T19:46:26.662Z,5.03
2022-07-28T19:48:57.469Z,6.60
2022-07-28T19:51:28.693Z,7.53
2022-07-28T19:53:59.711Z,4.93
2022-07-28T19:56:31.559Z,6.97
2022-07-28T19:59:04.732Z,4.15
2022-07-28T20:01:34.991Z,7.53
2022-07-28T20:04:05.617Z,5.30
2022-07-28T20:06:36.591Z,4.50
2022-07-28T20:09:08.084Z,5.90
2022-07-28T20:11:39.151Z,7.88
2022-07-28T20:14:12.267Z,4.63
2022-07-28T20:16:42.879Z,4.50
2022-07-28T20:19:16.782Z,7.35
2022-07-28T20:21:47.378Z,4.30
2022-07-28T20:24:19.984Z,5.57
2022-07-28T20:26:50.202Z,5.05
2022-07-28T20:29:23.083Z,8.45
2022-07-28T20:31:53.277Z,5.07
2022-07-28T20:34:23.509Z,7.25
2022-07-28T20:36:55.266Z,10.35
2022-07-28T20:39:43.893Z,10.05
2022-07-28T20:42:15.524Z,8.30
2022-07-28T20:47:18.403Z,10.48
2022-07-28T20:49:48.581Z,11.07
2022-07-28T20:52:18.821Z,14.00
2022-07-28T20:54:53.805Z,12.88
2022-07-28T20:57:24.700Z,8.68
2022-07-28T20:59:57.791Z,5.70
2022-07-28T21:02:28.178Z,5.43
2022-07-28T21:04:58.495Z,9.55
2022-07-28T21:08:05.411Z,6.38
2022-07-28T21:10:19.038Z,6.53
2022-07-28T21:12:49.937Z,7.57
2022-07-28T21:15:23.969Z,5.07
2022-07-28T21:17:57.255Z,8.52
2022-07-28T21:20:28.202Z,5.28
2022-07-28T21:22:58.511Z,9.55
2022-07-28T21:25:28.671Z,5.10
2022-07-28T21:28:11.295Z,5.50
2022-07-28T21:30:44.137Z,4.13
2022-07-28T21:33:22.630Z,7.45
2022-07-28T21:35:53.316Z,9.65
2022-07-28T21:38:23.646Z,5.70
2022-07-28T21:40:53.790Z,4.35
2022-07-28T21:43:24.046Z,3.67
2022-07-28T21:45:56.884Z,4.35
2022-07-28T21:48:27.074Z,4.78
2022-07-28T21:50:58.163Z,6.25
2022-07-28T21:53:28.788Z,7.03
2022-07-28T21:58:28.844Z,7.33
2022-07-28T22:01:02.884Z,8.93
2022-07-28T22:03:33.331Z,8.73
2022-07-28T22:06:03.936Z,7.97
2022-07-28T22:08:34.561Z,7.65
2022-07-28T22:13:35.721Z,7.32
2022-07-28T22:16:08.898Z,7.68
2022-07-28T22:18:39.086Z,5.57
2022-07-28T22:21:09.534Z,7.70
2022-07-28T22:23:40.078Z,3.53
2022-07-28T22:28:40.630Z,5.90
2022-07-28T22:31:13.527Z,6.57
2022-07-28T22:33:43.827Z,5.32
2022-07-28T22:36:14.237Z,4.10
2022-07-28T22:38:44.483Z,4.18
2022-07-28T22:41:14.751Z,5.07
2022-07-28T22:43:44.946Z,4.25
2022-07-28T22:46:17.839Z,4.25
2022-07-28T22:49:04.047Z,6.60
2022-07-28T22:51:34.908Z,6.93
2022-07-28T22:54:05.057Z,5.95
2022-07-28T22:56:37.273Z,3.90
2022-07-28T22:59:08.213Z,5.97
2022-07-28T23:01:41.064Z,5.43
2022-07-28T23:04:11.234Z,4.43
2022-07-28T23:06:44.842Z,6.35
2022-07-28T23:09:15.224Z,3.63
2022-07-28T23:11:55.628Z,4.60
2022-07-28T23:14:26.674Z,13.07
2022-07-28T23:16:59.608Z,4.50
2022-07-28T23:19:29.862Z,5.07
2022-07-28T23:22:00.452Z,8.55
2022-07-28T23:24:30.648Z,7.63
2022-07-28T23:27:00.862Z,4.45
2022-07-28T23:29:31.002Z,6.03
2022-07-28T23:32:04.127Z,9.02
2022-07-28T23:34:34.305Z,5.80
2022-07-28T23:37:04.777Z,7.82
2022-07-28T23:39:34.963Z,4.93
2022-07-28T23:42:05.810Z,5.70
2022-07-28T23:44:36.045Z,11.80
2022-07-28T23:47:09.303Z,5.85
2022-07-28T23:49:39.541Z,13.48
2022-07-28T23:52:09.730Z,4.60
2022-07-28T23:54:40.322Z,5.15
2022-07-28T23:59:40.491Z,5.40
